Latest Coastal Weather Observations for Cape Sorell

IDT60701

Issued at 10:11 pm EDT Saturday 13 February 2016 (issued every 10 minutes, with the page automatically refreshed every 10 minutes)

About coastal observations | Map of coastal stations | Coastal observations for TAS | Marine services | Other Formats
Station Details ID: 097000 Name: CAPE SORELL Lat: -42.20 Lon: 145.17 Height: 19.3 m
Data from the previous 72 hours. | See also: Recent months at Cape Sorell
Date/Time
EDT
Temp

°C
Wind Pressure Rain
since 9am
mm
Weather Cloud Vis
km
Sea
Height
m
Swell
Dir
 
Speed
knots
Gust
knots
hPa Trend Height
m
Period
s
Dir
13/10:00pm 15.7 W 12 18 1005.9 - 1.0 - - - - - - -
13/09:30pm 15.6 W 14 20 1005.7 - 1.0 - - - - - - -
13/09:00pm 15.9 W 14 19 1005.2 - 1.0 - - - - - - -
13/08:30pm 16.0 WSW 14 18 1004.7 - 1.0 - - - - - - -
13/08:00pm 16.0 WSW 11 14 1004.4 - 1.0 - - - - - - -
13/07:30pm 16.5 WSW 10 13 1004.3 - 1.0 - - - - - - -
13/07:00pm 17.1 WSW 12 15 1004.1 - 1.0 - - - - - - -
13/06:30pm 16.7 WSW 13 16 1003.9 - 1.0 - - - - - - -
13/06:00pm 16.6 WSW 16 20 1003.7 - 1.0 - - - - - - -
13/05:30pm 16.9 W 9 13 1003.8 - 1.0 - - - - - - -
13/05:00pm 15.8 W 11 15 1003.9 - 1.0 - - - - - - -
13/04:30pm 16.7 W 14 18 1003.9 - 0.2 - - - - - - -
13/04:00pm 19.6 NNW 16 20 1003.8 - 0.0 - - - - - - -
13/03:30pm 20.0 NNW 17 21 1003.9 - 0.0 - - - - - - -
13/03:00pm 20.6 NNW 15 20 1004.1 - 0.0 - - - - - - -
13/02:30pm 19.7 NNW 15 20 1004.3 - 0.0 - - - - - - -
13/02:00pm 19.9 NNW 16 23 1004.5 - 0.0 - - - - - - -
13/01:30pm 19.6 NNW 16 23 1004.3 - 0.0 - - - - - - -
13/01:00pm 20.0 NNW 18 23 1004.8 - 0.0 - - - - - - -
13/12:30pm 19.7 NNW 16 21 1005.0 - 0.0 - - - - - - -
13/12:00pm 18.8 NNW 17 22 1005.1 - 0.0 - - - - - - -
13/11:30am 18.8 N 16 21 1005.2 - 0.0 - - - - - - -
13/11:00am 18.8 NNW 12 17 1005.5 - 0.0 - - - - - - -
13/10:30am 18.5 NNW 16 20 1005.7 - 0.0 - - - - - - -
13/10:00am 19.0 NNW 15 19 1005.7 - 0.0 - - - - - - -
13/09:30am 19.3 NNW 14 18 1005.9 - 0.0 - - - - - - -
13/09:00am 19.4 NNW 14 18 1005.8 - 0.0 - - - - - - -
13/08:30am 18.8 NNW 12 16 1005.9 - 0.0 - - - - - - -
13/08:00am 18.0 NNW 13 18 1006.0 - 0.0 - - - - - - -
13/07:30am 17.5 NNW 11 16 1006.1 - 0.0 - - - - - - -
13/07:00am 17.4 NNW 13 18 1006.2 - 0.0 - - - - - - -
13/06:30am 17.6 NNW 14 19 1005.9 - 0.0 - - - - - - -
13/06:00am 17.4 N 19 23 1005.9 - 0.0 - - - - - - -
13/05:30am 17.4 N 20 27 1005.6 - 0.0 - - - - - - -
13/05:00am 17.5 N 19 23 1005.5 - 0.0 - - - - - - -
13/04:30am 17.4 N 19 23 1006.1 - 0.0 - - - - - - -
13/04:00am 17.2 N 20 25 1006.0 - 0.0 - - - - - - -
13/03:30am 17.1 N 20 24 1006.2 - 0.0 - - - - - - -
13/03:00am 17.1 N 19 24 1007.2 - 0.0 - - - - - - -
13/02:30am 17.1 N 17 22 1007.4 - 0.0 - - - - - - -
13/02:00am 17.1 N 15 18 1007.9 - 0.0 - - - - - - -
13/01:30am 17.4 N 14 17 1008.1 - 0.0 - - - - - - -
13/01:00am 17.4 NNW 11 14 1008.8 - 0.0 - - - - - - -
13/12:30am 17.3 NW 11 13 1009.4 - 0.0 - - - - - - -
13/12:00am 17.3 NW 10 14 1009.5 - 0.0 - - - - - - -
 
Date/Time
EDT
Temp

°C
Wind Pressure Rain
since 9am
mm
Weather Cloud Vis
km
Sea
Height
m
Swell
Dir
 
Speed
knots
Gust
knots
hPa Trend Height
m
Period
s
Dir
12/11:30pm 17.2 NNW 9 12 1009.5 - 0.0 - - - - - - -
12/11:00pm 17.2 NNW 8 11 1010.0 - 0.0 - - - - - - -
12/10:30pm 17.0 NNW 7 9 1010.3 - 0.0 - - - - - - -
12/10:00pm 16.8 NNW 5 7 1010.5 - 0.0 - - - - - - -
12/09:30pm 17.0 NNW 6 7 1010.9 - 0.0 - - - - - - -
12/09:00pm 17.1 NNW 5 7 1011.0 - 0.0 - - - - - - -
12/08:30pm 17.0 NNW 5 7 1011.0 - 0.0 - - - - - - -
12/08:00pm 17.1 NNW 4 5 1011.2 - 0.0 - - - - - - -
12/07:30pm 17.9 NW 3 4 1011.4 - 0.0 - - - - - - -
12/07:00pm 18.1 W 4 5 1011.6 - 0.0 - - - - - - -
12/06:30pm 18.9 WSW 4 5 1011.8 - 0.0 - - - - - - -
12/06:00pm 19.3 WSW 4 5 1011.9 - 0.0 - - - - - - -
12/05:30pm 20.4 SW 5 7 1012.1 - 0.0 - - - - - - -
12/05:00pm 20.4 SSW 8 9 1012.1 - 0.0 - - - - - - -
12/04:30pm 20.0 SSW 11 13 1012.4 - 0.0 - - - - - - -
12/04:00pm 20.3 SSW 13 15 1012.6 - 0.0 - - - - - - -
12/03:30pm 20.3 SSW 11 13 1012.6 - 0.0 - - - - - - -
12/03:00pm 20.2 SSW 12 14 1012.8 - 0.0 - - - - - - -
12/02:30pm 20.1 SSW 12 14 1013.2 - 0.0 - - - - - - -
12/02:00pm 20.1 SSW 12 13 1013.6 - 0.0 - - - - - - -
12/01:30pm 20.0 SSW 11 13 1014.1 - 0.0 - - - - - - -
12/01:00pm 21.3 SSW 10 11 1014.6 - 0.0 - - - - - - -
12/12:30pm 20.5 SSW 10 11 1014.8 - 0.0 - - - - - - -
12/12:00pm 19.2 SSW 7 8 1015.2 - 0.0 - - - - - - -
12/11:30am 18.6 SSW 8 10 1015.7 - 0.0 - - - - - - -
12/11:00am 18.3 SSW 8 9 1016.4 - 0.0 - - - - - - -
12/10:30am 17.5 SSW 6 7 1016.7 - 0.0 - - - - - - -
12/10:00am 16.8 S 4 5 1017.0 - 0.0 - - - - - - -
12/09:30am 16.5 SSW 3 5 1017.2 - 0.0 - - - - - - -
12/09:00am 15.7 SSW 2 3 1017.4 - 0.0 - - - - - - -
12/08:30am 15.4 SE 1 2 1017.5 - 0.0 - - - - - - -
12/08:00am 14.2 NE 1 2 1017.2 - 0.0 - - - - - - -
12/07:30am 13.4 ENE 3 4 1016.9 - 0.0 - - - - - - -
12/07:00am 12.9 E 4 5 1016.6 - 0.0 - - - - - - -
12/06:30am 12.7 ESE 7 8 1016.3 - 0.0 - - - - - - -
12/06:00am 12.6 ESE 7 8 1016.1 - 0.0 - - - - - - -
12/05:30am 11.9 SE 5 6 1016.1 - 0.0 - - - - - - -
12/05:00am 12.2 SE 6 7 1016.4 - 0.0 - - - - - - -
12/04:30am 12.0 SE 5 7 1016.7 - 0.0 - - - - - - -
12/04:00am 12.3 SE 6 8 1016.8 - 0.0 - - - - - - -
12/03:30am 12.5 SE 6 7 1017.3 - 0.0 - - - - - - -
12/03:00am 12.4 SE 7 8 1017.4 - 0.0 - - - - - - -
12/02:30am 12.6 SE 7 8 1017.6 - 0.0 - - - - - - -
12/02:00am 12.9 SE 7 8 1017.8 - 0.0 - - - - - - -
12/01:30am 13.3 ESE 7 9 1018.0 - 0.0 - - - - - - -
12/01:00am 13.3 SE 6 9 1018.1 - 0.0 - - - - - - -
12/12:30am 13.5 SE 7 9 1018.3 - 0.0 - - - - - - -
12/12:00am 13.3 SE 7 9 1018.4 - 0.0 - - - - - - -
 
Date/Time
EDT
Temp

°C
Wind Pressure Rain
since 9am
mm
Weather Cloud Vis
km
Sea
Height
m
Swell
Dir
 
Speed
knots
Gust
knots
hPa Trend Height
m
Period
s
Dir
11/11:30pm 14.3 SSE 7 9 1018.6 - 0.0 - - - - - - -
11/11:00pm 14.9 S 8 11 1018.6 - 0.0 - - - - - - -
11/10:30pm 15.1 S 8 10 1018.5 - 0.0 - - - - - - -
11/10:00pm 15.2 SSE 9 11 1018.4 - 0.0 - - - - - - -
11/09:30pm 15.9 S 13 16 1018.2 - 0.0 - - - - - - -
11/09:00pm 16.0 S 15 19 1018.0 - 0.0 - - - - - - -
11/08:30pm 16.1 S 15 19 1017.6 - 0.0 - - - - - - -
11/08:00pm 16.6 SSW 15 19 1017.2 - 0.0 - - - - - - -
11/07:30pm 17.0 SSW 16 19 1017.1 - 0.0 - - - - - - -
11/07:00pm 17.1 SSW 16 19 1017.0 - 0.0 - - - - - - -
11/06:30pm 17.8 SSW 16 18 1016.9 - 0.0 - - - - - - -
11/06:00pm 18.4 SW 16 19 1017.1 - 0.0 - - - - - - -
11/05:30pm 19.3 SSW 13 15 1016.7 - 0.0 - - - - - - -
11/05:00pm 19.5 SW 13 15 1016.7 - 0.0 - - - - - - -
11/04:30pm 20.0 SSW 13 16 1016.9 - 0.0 - - - - - - -
11/04:00pm 20.0 SW 13 16 1016.9 - 0.0 - - - - - - -
11/03:30pm 20.3 SW 12 14 1017.1 - 0.0 - - - - - - -
11/03:00pm 20.6 SSW 12 14 1017.2 - 0.0 - - - - - - -
11/02:30pm 20.9 SSW 11 14 1017.5 - 0.0 - - - - - - -
11/02:00pm 20.5 SSW 9 11 1017.5 - 0.0 - - - - - - -
11/01:30pm 20.1 SSW 10 13 1017.4 - 0.0 - - - - - - -
11/01:00pm 20.1 SSW 10 12 1017.4 - 0.0 - - - - - - -
11/12:30pm 19.3 SSW 9 11 1017.4 - 0.0 - - - - - - -
11/12:00pm 19.7 SSW 6 9 1017.5 - 0.0 - - - - - - -
11/11:30am 17.9 S 5 7 1017.5 - 0.0 - - - - - - -
11/11:00am 17.4 S 6 9 1017.4 - 0.0 - - - - - - -
11/10:30am 16.8 S 7 10 1017.6 - 0.0 - - - - - - -
11/10:00am 15.6 SSW 8 11 1017.9 - 0.0 - - - - - - -
11/09:30am 15.3 SSE 2 4 1017.7 - 0.0 - - - - - - -
11/09:00am 15.0 SE 4 5 1017.4 - 0.2 Recent precip. - - - - - -
11/08:30am 15.1 SSE 3 4 1016.9 - 0.2 - - - - - - -
11/08:00am 15.2 SSE 3 4 1016.5 - 0.0 - - - - - - -
11/07:30am 15.2 E 4 5 1016.1 - 0.0 - - - - - - -
11/07:00am 14.8 E 5 6 1015.9 - 0.0 - - - - - - -
11/06:30am 14.8 ESE 5 5 1015.7 - 0.0 - - - - - - -
11/06:00am 15.0 ESE 5 7 1015.5 - 0.0 - - - - - - -
11/05:30am 16.1 SSW 6 8 1015.3 - 0.0 - - - - - - -
11/05:00am 15.9 SSW 5 6 1015.2 - 0.0 - - - - - - -
11/04:30am 15.5 SSW 6 8 1015.2 - 0.0 - - - - - - -
11/04:00am 15.6 SW 7 9 1015.0 - 0.0 - - - - - - -
11/03:30am 15.9 SSW 9 10 1015.0 - 0.0 - - - - - - -
11/03:00am 15.9 SW 10 13 1015.0 - 0.0 - - - - - - -
11/02:30am 16.0 SW 12 14 1015.1 - 0.0 - - - - - - -
11/02:00am 16.1 SW 11 13 1015.1 - 0.0 - - - - - - -
11/01:30am 16.1 SW 10 12 1015.1 - 0.0 - - - - - - -
11/01:00am 16.0 SW 10 12 1014.9 - 0.0 - - - - - - -
11/12:30am 16.4 SW 12 15 1014.8 - 0.0 - - - - - - -
11/12:00am 16.6 SW 10 13 1014.8 - 0.0 - - - - - - -
 
Date/Time
EDT
Temp

°C
Wind Pressure Rain
since 9am
mm
Weather Cloud Vis
km
Sea
Height
m
Swell
Dir
 
Speed
knots
Gust
knots
hPa Trend Height
m
Period
s
Dir
10/11:30pm 16.7 SW 9 11 1014.7 - 0.0 - - - - - - -
10/11:00pm 16.9 WSW 10 12 1014.7 - 0.0 - - - - - - -
10/10:30pm 17.1 SW 12 15 1014.6 - 0.0 - - - - - - -

Other Formats:

Comma delimited format used in spreadsheet applications
http://www.bom.gov.au/fwo/IDT60701/IDT60701.94974.axf

JavaScript Object Notation format (JSON) in row-major order
http://www.bom.gov.au/fwo/IDT60701/IDT60701.94974.json